createdAt,value
2023-10-13T00:02:11.263Z,18.07
2023-10-13T00:04:38.008Z,21.93
2023-10-13T00:07:05.503Z,15.80
2023-10-13T00:09:33.069Z,21.60
2023-10-13T00:12:00.793Z,23.03
2023-10-13T00:14:35.871Z,19.47
2023-10-13T00:17:04.746Z,22.77
2023-10-13T00:19:38.526Z,33.33
2023-10-13T00:22:10.121Z,15.37
2023-10-13T00:24:43.216Z,27.13
2023-10-13T00:27:24.948Z,27.50
2023-10-13T00:30:04.604Z,21.47
2023-10-13T00:32:32.746Z,20.37
2023-10-13T00:35:05.561Z,17.23
2023-10-13T00:37:41.744Z,17.67
2023-10-13T00:40:24.949Z,16.37
2023-10-13T00:42:54.472Z,16.33
2023-10-13T00:45:21.194Z,25.27
2023-10-13T00:47:57.133Z,10.73
2023-10-13T00:50:24.430Z,16.50
2023-10-13T00:52:51.484Z,21.43
2023-10-13T00:55:22.870Z,16.47
2023-10-13T00:57:54.600Z,15.47
2023-10-13T01:00:28.720Z,12.87
2023-10-13T01:02:56.487Z,13.87
2023-10-13T01:05:24.080Z,16.20
2023-10-13T01:07:53.334Z,13.77
2023-10-13T01:10:20.571Z,15.80
2023-10-13T01:12:47.679Z,12.27
2023-10-13T01:15:20.580Z,12.90
2023-10-13T01:17:47.301Z,9.87
2023-10-13T01:20:21.061Z,14.53
2023-10-13T01:22:55.682Z,13.03
2023-10-13T01:25:26.163Z,8.77
2023-10-13T01:27:52.832Z,16.07
2023-10-13T01:30:26.501Z,15.63
2023-10-13T01:32:54.532Z,10.67
2023-10-13T01:35:25.802Z,12.23
2023-10-13T01:37:52.665Z,10.57
2023-10-13T01:40:20.926Z,13.83
2023-10-13T01:42:55.578Z,17.83
2023-10-13T01:45:22.100Z,18.10
2023-10-13T01:47:51.234Z,18.73
2023-10-13T01:50:21.409Z,25.33
2023-10-13T01:52:48.195Z,24.90
2023-10-13T01:55:14.996Z,13.97
2023-10-13T01:57:42.929Z,28.30
2023-10-13T02:00:19.297Z,31.30
2023-10-13T02:02:50.415Z,29.50
2023-10-13T02:05:17.578Z,21.97
2023-10-13T02:07:45.737Z,21.53
2023-10-13T02:10:13.171Z,22.87
2023-10-13T02:12:43.078Z,31.73
2023-10-13T02:15:12.649Z,24.80
2023-10-13T02:17:42.196Z,31.20
2023-10-13T02:20:10.888Z,17.93
2023-10-13T02:22:38.842Z,22.50
2023-10-13T02:25:06.513Z,26.43
2023-10-13T02:27:40.943Z,21.57
2023-10-13T02:30:13.437Z,23.50
2023-10-13T02:32:43.990Z,32.73
2023-10-13T02:35:15.910Z,26.00
2023-10-13T02:37:44.509Z,23.10
2023-10-13T02:40:12.362Z,24.97
2023-10-13T02:42:39.462Z,29.00
2023-10-13T02:45:08.385Z,23.17
2023-10-13T02:47:35.030Z,24.50
2023-10-13T02:50:12.236Z,28.90
2023-10-13T02:52:41.875Z,19.97
2023-10-13T02:55:10.577Z,28.33
2023-10-13T02:57:36.963Z,21.17
2023-10-13T03:00:16.733Z,29.20
2023-10-13T03:02:46.044Z,31.30
2023-10-13T03:05:14.080Z,22.83
2023-10-13T03:07:43.442Z,17.43
2023-10-13T03:10:10.804Z,31.27
2023-10-13T03:12:37.763Z,19.53
2023-10-13T03:15:13.177Z,24.23
2023-10-13T03:17:43.950Z,23.73
2023-10-13T03:20:13.296Z,27.40
2023-10-13T03:22:40.578Z,39.57
2023-10-13T03:25:08.779Z,26.77
2023-10-13T03:28:02.645Z,30.53
2023-10-13T03:30:36.354Z,24.23
2023-10-13T03:33:07.868Z,33.70
2023-10-13T03:35:42.396Z,22.73
2023-10-13T03:38:17.847Z,26.13
2023-10-13T03:40:56.791Z,22.63
2023-10-13T03:43:24.108Z,28.10
2023-10-13T03:45:54.541Z,29.63
2023-10-13T03:48:29.052Z,25.27
2023-10-13T03:51:03.960Z,37.63
2023-10-13T03:53:34.054Z,26.50
2023-10-13T03:56:12.485Z,33.47
2023-10-13T03:58:42.519Z,31.37
2023-10-13T04:01:12.294Z,39.87
2023-10-13T04:03:39.324Z,43.20
2023-10-13T04:06:06.956Z,44.50
2023-10-13T04:08:54.466Z,33.90
2023-10-13T04:11:59.976Z,34.53
2023-10-13T04:14:58.128Z,39.17
2023-10-13T04:17:26.458Z,39.83
2023-10-13T04:20:09.458Z,32.40
2023-10-13T04:22:52.057Z,59.30
2023-10-13T04:25:35.887Z,52.27
2023-10-13T04:28:17.281Z,42.93
2023-10-13T04:31:00.461Z,36.10
2023-10-13T04:33:51.580Z,45.03
2023-10-13T04:36:36.483Z,44.03
2023-10-13T04:39:17.469Z,32.03
2023-10-13T04:41:58.220Z,39.57
2023-10-13T04:44:43.498Z,35.90
2023-10-13T04:47:18.122Z,42.60
2023-10-13T04:49:52.971Z,43.00
2023-10-13T04:52:38.295Z,39.37
2023-10-13T04:55:33.373Z,42.40
2023-10-13T04:58:11.530Z,42.40
2023-10-13T05:01:16.276Z,42.93
2023-10-13T05:04:09.117Z,42.30
2023-10-13T05:06:54.203Z,49.70
2023-10-13T05:09:38.836Z,45.03
2023-10-13T05:12:24.342Z,46.83
2023-10-13T05:15:09.935Z,41.07
2023-10-13T05:17:54.500Z,46.80
2023-10-13T05:20:39.363Z,37.43
2023-10-13T05:23:23.150Z,43.10
2023-10-13T05:26:08.048Z,43.73
2023-10-13T05:28:53.373Z,46.77
2023-10-13T05:31:39.014Z,45.63
2023-10-13T05:34:23.770Z,43.20
2023-10-13T05:37:08.755Z,49.90
2023-10-13T05:39:53.544Z,37.23
2023-10-13T05:42:38.340Z,43.90
2023-10-13T05:45:23.482Z,49.73
2023-10-13T05:48:02.700Z,36.00
2023-10-13T05:50:47.914Z,40.43
2023-10-13T05:53:29.144Z,42.43
2023-10-13T05:56:19.484Z,40.80
2023-10-13T05:59:04.260Z,34.77
2023-10-13T06:01:49.180Z,38.33
2023-10-13T06:04:34.672Z,50.17
2023-10-13T06:07:19.390Z,50.87
2023-10-13T06:10:04.502Z,36.80
2023-10-13T06:12:49.123Z,37.00
2023-10-13T06:15:34.543Z,41.30
2023-10-13T06:18:19.157Z,41.67
2023-10-13T06:21:04.835Z,35.53
2023-10-13T06:23:50.786Z,32.57
2023-10-13T06:26:35.815Z,33.60
2023-10-13T06:29:02.638Z,37.93
2023-10-13T06:31:29.443Z,44.23
2023-10-13T06:33:56.666Z,38.90
2023-10-13T06:36:24.332Z,32.17
2023-10-13T06:38:56.694Z,39.37
2023-10-13T06:41:31.141Z,42.20
2023-10-13T06:44:00.904Z,38.87
2023-10-13T06:46:29.159Z,52.83
2023-10-13T06:48:59.628Z,36.40
2023-10-13T06:51:31.430Z,32.57
2023-10-13T06:53:58.487Z,35.60
2023-10-13T06:56:28.392Z,41.00
2023-10-13T06:58:59.730Z,32.53
2023-10-13T07:01:27.436Z,30.67
2023-10-13T07:03:54.666Z,31.47
2023-10-13T07:06:21.758Z,34.17
2023-10-13T07:08:52.563Z,29.40
2023-10-13T07:11:23.255Z,29.80
2023-10-13T07:13:53.003Z,26.37
2023-10-13T07:16:30.043Z,23.33
2023-10-13T07:19:04.756Z,23.60
2023-10-13T07:21:31.725Z,23.77
2023-10-13T07:24:08.700Z,24.00
2023-10-13T07:26:37.540Z,32.20
2023-10-13T07:29:08.450Z,22.73
2023-10-13T07:31:35.228Z,25.33
2023-10-13T07:34:10.471Z,22.63
2023-10-13T07:36:39.994Z,25.07
2023-10-13T07:39:23.350Z,23.13
2023-10-13T07:41:54.515Z,30.00
2023-10-13T07:44:25.151Z,15.27
2023-10-13T07:46:59.558Z,19.33
2023-10-13T07:49:31.640Z,19.07
2023-10-13T07:52:01.674Z,19.67
2023-10-13T07:54:29.120Z,17.13
2023-10-13T07:56:56.223Z,23.73
2023-10-13T07:59:24.521Z,20.87
2023-10-13T08:02:12.761Z,24.07
2023-10-13T08:04:39.505Z,23.00
2023-10-13T08:07:14.232Z,19.10
2023-10-13T08:09:44.014Z,28.10
2023-10-13T08:12:12.196Z,20.03
2023-10-13T08:14:40.655Z,17.80
2023-10-13T08:17:09.871Z,19.73
2023-10-13T08:19:45.671Z,25.47
2023-10-13T08:22:24.232Z,18.00
2023-10-13T08:25:11.340Z,27.20
2023-10-13T08:27:49.391Z,19.40
2023-10-13T08:30:26.800Z,15.57
2023-10-13T08:32:57.322Z,20.73
2023-10-13T08:35:36.926Z,18.27
2023-10-13T08:38:27.310Z,14.07
2023-10-13T08:41:17.945Z,17.80
2023-10-13T08:43:51.011Z,16.33
2023-10-13T08:46:29.151Z,18.57
2023-10-13T08:49:14.949Z,16.43
2023-10-13T08:51:45.866Z,16.23
2023-10-13T08:54:20.392Z,18.50
2023-10-13T08:56:56.616Z,12.77
2023-10-13T08:59:23.571Z,14.17
2023-10-13T09:02:00.153Z,19.97
2023-10-13T09:04:33.915Z,17.03
2023-10-13T09:07:09.342Z,15.63
2023-10-13T09:10:14.170Z,15.87
2023-10-13T09:13:01.203Z,21.03
2023-10-13T09:15:50.392Z,20.67
2023-10-13T09:18:42.491Z,20.33
2023-10-13T09:21:30.379Z,20.90
2023-10-13T09:24:17.502Z,16.83
2023-10-13T09:26:45.433Z,16.87
2023-10-13T09:29:20.201Z,13.57
2023-10-13T09:31:51.502Z,16.70
2023-10-13T09:34:24.117Z,16.27
2023-10-13T09:36:55.735Z,18.50
2023-10-13T09:39:35.367Z,26.03
2023-10-13T09:42:03.902Z,12.93
2023-10-13T09:44:31.897Z,21.43
2023-10-13T09:47:08.587Z,21.50
2023-10-13T09:49:49.463Z,18.60
2023-10-13T09:52:20.046Z,18.43
2023-10-13T09:55:00.410Z,17.47
2023-10-13T09:57:35.115Z,14.20
2023-10-13T10:00:33.063Z,13.30
2023-10-13T10:03:15.132Z,17.20
2023-10-13T10:05:49.777Z,17.37
2023-10-13T10:08:32.475Z,13.97
2023-10-13T10:11:07.949Z,24.20
2023-10-13T10:13:42.186Z,17.97
2023-10-13T10:16:15.002Z,18.20
2023-10-13T10:18:42.796Z,12.07
2023-10-13T10:21:10.956Z,14.70
2023-10-13T10:23:39.934Z,19.93
2023-10-13T10:26:15.805Z,21.63
2023-10-13T10:28:44.001Z,19.77
2023-10-13T10:31:13.295Z,16.60
2023-10-13T10:33:41.797Z,17.37
2023-10-13T10:36:14.589Z,22.37
2023-10-13T10:38:54.961Z,19.70
2023-10-13T10:41:33.141Z,12.00
2023-10-13T10:44:03.288Z,15.87
2023-10-13T10:46:38.575Z,22.50
2023-10-13T10:49:06.126Z,14.27
2023-10-13T10:51:34.521Z,16.57
2023-10-13T10:54:11.879Z,17.47
2023-10-13T10:56:38.937Z,17.67
2023-10-13T10:59:08.802Z,13.97
2023-10-13T11:01:47.630Z,16.77
2023-10-13T11:04:18.930Z,15.27
2023-10-13T11:06:50.138Z,14.97
2023-10-13T11:09:31.970Z,17.87
2023-10-13T11:12:15.189Z,16.03
2023-10-13T11:14:43.565Z,16.70
2023-10-13T11:17:18.725Z,25.23
2023-10-13T11:19:45.537Z,22.40
2023-10-13T11:22:29.564Z,18.43
2023-10-13T11:24:59.505Z,13.67
2023-10-13T11:27:44.726Z,19.90
2023-10-13T11:30:15.156Z,16.47
2023-10-13T11:32:43.334Z,21.00
2023-10-13T11:35:20.491Z,17.83
2023-10-13T11:37:56.616Z,18.17
2023-10-13T11:40:46.433Z,21.83
2023-10-13T11:43:15.749Z,18.33
2023-10-13T11:45:55.948Z,24.43
2023-10-13T11:48:35.128Z,19.40
2023-10-13T11:51:06.040Z,21.23
2023-10-13T11:53:33.283Z,23.30
2023-10-13T11:56:00.350Z,26.50
2023-10-13T11:58:29.056Z,25.13
2023-10-13T12:01:09.266Z,24.07
2023-10-13T12:03:57.289Z,16.00
2023-10-13T12:06:33.644Z,16.73
2023-10-13T12:09:14.494Z,24.48
2023-10-13T12:11:42.366Z,17.23
2023-10-13T12:14:17.317Z,17.33
2023-10-13T12:16:49.107Z,13.17
2023-10-13T12:19:17.509Z,27.07
2023-10-13T12:21:44.529Z,20.87
2023-10-13T12:24:22.800Z,20.38
2023-10-13T12:26:55.961Z,27.90
2023-10-13T12:29:28.634Z,19.20
2023-10-13T12:32:06.593Z,15.33
2023-10-13T12:34:47.146Z,20.40
2023-10-13T12:37:38.264Z,22.05
2023-10-13T12:40:24.183Z,15.20
2023-10-13T12:43:09.573Z,21.93
2023-10-13T12:45:57.801Z,18.63
2023-10-13T12:48:56.963Z,21.58
2023-10-13T12:51:39.002Z,30.27
2023-10-13T12:54:07.003Z,19.97
2023-10-13T12:56:33.785Z,21.58
2023-10-13T12:59:00.878Z,21.45
2023-10-13T13:01:33.329Z,19.40
2023-10-13T13:04:04.006Z,39.07
2023-10-13T13:06:31.465Z,31.95
2023-10-13T13:08:59.281Z,25.57
2023-10-13T13:11:27.455Z,25.43
2023-10-13T13:13:54.596Z,32.83
2023-10-13T13:16:24.466Z,23.50
2023-10-13T13:18:51.336Z,31.65
2023-10-13T13:21:23.489Z,25.30
2023-10-13T13:23:51.016Z,32.88
2023-10-13T13:26:18.123Z,20.95
2023-10-13T13:28:45.780Z,19.25
2023-10-13T13:31:13.041Z,24.05
2023-10-13T13:33:42.780Z,20.67
2023-10-13T13:36:16.569Z,29.65
2023-10-13T13:38:46.517Z,19.52
2023-10-13T13:41:16.335Z,32.50
2023-10-13T13:43:55.251Z,21.63
2023-10-13T13:46:25.441Z,23.98
2023-10-13T13:48:58.752Z,16.60
2023-10-13T13:51:28.107Z,28.40
2023-10-13T13:53:55.943Z,20.88
2023-10-13T13:56:25.955Z,29.52
2023-10-13T13:58:53.134Z,26.55
2023-10-13T14:01:22.007Z,23.08
2023-10-13T14:03:50.984Z,22.75
2023-10-13T14:06:21.698Z,24.60
2023-10-13T14:08:49.130Z,23.38
2023-10-13T14:11:34.506Z,17.10
2023-10-13T14:14:04.633Z,22.67
2023-10-13T14:16:34.286Z,28.83
2023-10-13T14:19:07.990Z,32.22
2023-10-13T14:21:35.550Z,21.00
2023-10-13T14:24:03.380Z,21.98
2023-10-13T14:26:31.864Z,22.23
2023-10-13T14:29:02.275Z,41.55
2023-10-13T14:31:30.648Z,22.63
2023-10-13T14:33:57.669Z,22.42
2023-10-13T14:36:28.952Z,20.48
2023-10-13T14:38:56.212Z,19.95
2023-10-13T14:41:23.498Z,24.52
2023-10-13T14:43:51.079Z,23.77
2023-10-13T14:54:51.825Z,36.80
2023-10-13T14:57:28.271Z,20.13
2023-10-13T15:00:30.066Z,33.35
2023-10-13T15:02:57.417Z,24.17
2023-10-13T15:05:24.829Z,31.92
2023-10-13T15:07:51.908Z,28.83
2023-10-13T15:10:19.583Z,26.88
2023-10-13T15:12:46.472Z,24.63
2023-10-13T15:15:16.871Z,27.13
2023-10-13T15:17:44.238Z,31.50
2023-10-13T15:20:16.307Z,24.13
2023-10-13T15:22:44.213Z,29.60
2023-10-13T15:25:21.345Z,30.92
2023-10-13T15:27:56.087Z,30.23
2023-10-13T15:30:31.631Z,20.35
2023-10-13T15:32:59.265Z,19.23
2023-10-13T15:35:28.893Z,37.70
2023-10-13T15:37:56.559Z,29.80
2023-10-13T15:40:24.614Z,48.00
2023-10-13T15:42:54.631Z,25.00
2023-10-13T15:45:22.624Z,25.98
2023-10-13T15:50:21.773Z,30.10
2023-10-13T15:52:49.273Z,23.98
2023-10-13T15:55:18.875Z,28.38
2023-10-13T15:57:45.860Z,27.60
2023-10-13T16:00:27.203Z,33.15
2023-10-13T16:02:57.322Z,27.20
2023-10-13T16:05:35.358Z,28.77
2023-10-13T16:08:03.862Z,26.30
2023-10-13T16:10:31.553Z,19.60
2023-10-13T16:12:59.305Z,34.72
2023-10-13T16:15:27.454Z,23.97
2023-10-13T16:17:55.053Z,36.10
2023-10-13T16:20:25.403Z,17.02
2023-10-13T16:22:52.373Z,31.25
2023-10-13T16:25:21.565Z,25.30
2023-10-13T16:27:49.941Z,24.50
2023-10-13T16:30:16.966Z,27.08
2023-10-13T16:32:46.580Z,35.75
2023-10-13T16:35:16.794Z,24.58
2023-10-13T16:37:47.330Z,22.08
2023-10-13T16:40:18.892Z,22.77
2023-10-13T16:42:46.573Z,23.25
2023-10-13T16:45:16.015Z,26.95
2023-10-13T16:47:44.266Z,30.27
2023-10-13T16:50:11.763Z,19.30
2023-10-13T16:52:40.280Z,31.70
2023-10-13T16:55:09.473Z,17.70
2023-10-13T16:57:36.658Z,24.10
2023-10-13T17:00:07.097Z,23.00
2023-10-13T17:02:34.749Z,22.70
2023-10-13T17:05:03.202Z,23.95
2023-10-13T17:07:29.969Z,21.67
2023-10-13T17:09:57.108Z,23.73
2023-10-13T17:12:24.115Z,19.25
2023-10-13T17:14:53.656Z,25.90
2023-10-13T17:17:22.308Z,25.75
2023-10-13T17:19:50.053Z,28.67
2023-10-13T17:22:17.866Z,27.90
2023-10-13T17:24:44.707Z,19.35
2023-10-13T17:27:11.549Z,33.22
2023-10-13T17:29:40.780Z,14.82
2023-10-13T17:32:08.662Z,26.30
2023-10-13T17:34:35.630Z,18.83
2023-10-13T17:37:02.668Z,22.17
2023-10-13T17:39:30.282Z,23.98
2023-10-13T17:41:57.094Z,26.67
2023-10-13T17:44:24.352Z,30.02
2023-10-13T17:46:51.278Z,22.50
2023-10-13T17:49:19.244Z,23.92
2023-10-13T17:51:46.122Z,14.90
2023-10-13T17:54:13.015Z,18.35
2023-10-13T17:56:41.365Z,25.02
2023-10-13T17:59:08.177Z,30.08
2023-10-13T18:01:35.508Z,27.52
2023-10-13T18:04:04.894Z,23.35
2023-10-13T18:06:32.052Z,27.52
2023-10-13T18:08:58.976Z,21.20
2023-10-13T18:11:28.710Z,15.50
2023-10-13T18:13:56.274Z,41.17
2023-10-13T18:16:24.836Z,19.70
2023-10-13T18:18:51.795Z,30.27
2023-10-13T18:21:18.896Z,29.05
2023-10-13T18:23:51.626Z,22.00
2023-10-13T18:26:20.217Z,29.98
2023-10-13T18:28:47.366Z,23.85
2023-10-13T18:31:14.900Z,25.13
2023-10-13T18:33:42.622Z,25.42
2023-10-13T18:36:16.749Z,23.85
2023-10-13T18:38:45.050Z,28.70
2023-10-13T18:41:12.122Z,21.67
2023-10-13T18:43:40.663Z,35.88
2023-10-13T18:46:09.997Z,26.23
2023-10-13T18:48:38.623Z,34.88
2023-10-13T18:51:06.939Z,16.92
2023-10-13T18:53:35.049Z,16.00
2023-10-13T18:56:10.228Z,21.35
2023-10-13T18:58:39.982Z,24.90
2023-10-13T19:01:12.912Z,24.17
2023-10-13T19:03:41.428Z,27.83
2023-10-13T19:06:08.806Z,20.55
2023-10-13T19:08:36.202Z,21.35
2023-10-13T19:11:05.297Z,21.42
2023-10-13T19:13:32.116Z,26.75
2023-10-13T19:16:01.182Z,29.23
2023-10-13T19:18:29.836Z,17.80
2023-10-13T19:20:57.928Z,11.98
2023-10-13T19:23:27.299Z,29.50
2023-10-13T19:25:55.897Z,24.08
2023-10-13T19:28:23.687Z,23.30
2023-10-13T19:30:52.520Z,20.77
2023-10-13T19:33:20.272Z,21.35
2023-10-13T19:35:47.297Z,22.70
2023-10-13T19:38:15.689Z,17.45
2023-10-13T19:40:42.503Z,17.27
2023-10-13T19:43:12.353Z,20.83
2023-10-13T19:45:39.462Z,15.05
2023-10-13T19:48:08.781Z,24.40
2023-10-13T19:50:38.827Z,18.52
2023-10-13T19:53:11.326Z,29.95
2023-10-13T19:55:40.192Z,20.40
2023-10-13T19:58:07.810Z,22.48
2023-10-13T20:00:35.131Z,24.13
2023-10-13T20:03:02.474Z,26.83
2023-10-13T20:05:29.624Z,19.13
2023-10-13T20:07:56.444Z,18.77
2023-10-13T20:10:23.705Z,20.80
2023-10-13T20:12:54.093Z,26.63
2023-10-13T20:15:21.124Z,13.32
2023-10-13T20:17:48.171Z,22.10
2023-10-13T20:20:17.310Z,22.00
2023-10-13T20:22:45.514Z,19.92
2023-10-13T20:25:14.610Z,15.15
2023-10-13T20:27:43.690Z,30.80
2023-10-13T20:30:14.136Z,26.35
2023-10-13T20:32:46.096Z,22.67
2023-10-13T20:35:18.552Z,30.02
2023-10-13T20:37:45.303Z,30.58
2023-10-13T20:40:18.907Z,18.17
2023-10-13T20:42:49.552Z,30.10
2023-10-13T20:45:22.529Z,19.63
2023-10-13T20:47:51.057Z,20.23
2023-10-13T20:50:19.074Z,21.05
2023-10-13T20:52:46.131Z,30.52
2023-10-13T20:55:18.140Z,28.35
2023-10-13T20:57:45.490Z,25.20
2023-10-13T21:00:20.577Z,23.05
2023-10-13T21:02:48.501Z,20.42
2023-10-13T21:05:16.233Z,23.35
2023-10-13T21:07:43.406Z,30.25
2023-10-13T21:10:13.542Z,18.13
2023-10-13T21:12:42.698Z,21.98
2023-10-13T21:15:15.548Z,16.20
2023-10-13T21:17:43.386Z,14.32
2023-10-13T21:20:14.982Z,21.48
2023-10-13T21:22:42.948Z,30.42
2023-10-13T21:25:19.689Z,15.18
2023-10-13T21:27:49.432Z,26.70
2023-10-13T21:30:17.717Z,25.58
2023-10-13T21:32:44.628Z,20.15
2023-10-13T21:35:13.090Z,15.80
2023-10-13T21:37:40.734Z,20.00
2023-10-13T21:40:08.634Z,26.48
2023-10-13T21:42:36.422Z,21.17
2023-10-13T21:45:10.636Z,18.63
2023-10-13T21:47:37.529Z,21.58
2023-10-13T21:50:05.818Z,20.52
2023-10-13T21:52:34.285Z,23.50
2023-10-13T21:55:01.084Z,15.48
2023-10-13T21:57:27.911Z,23.58
2023-10-13T21:59:54.972Z,21.43
2023-10-13T22:02:21.948Z,19.00
2023-10-13T22:04:50.510Z,23.38
2023-10-13T22:07:21.581Z,18.92
2023-10-13T22:09:49.014Z,19.40
2023-10-13T22:12:19.888Z,19.42
2023-10-13T22:14:48.228Z,17.33
2023-10-13T22:17:18.777Z,22.08
2023-10-13T22:19:47.408Z,17.67
2023-10-13T22:22:14.334Z,24.35
2023-10-13T22:24:42.602Z,23.40
2023-10-13T22:27:12.030Z,20.13
2023-10-13T22:29:41.458Z,29.05
2023-10-13T22:32:09.400Z,14.57
2023-10-13T22:34:36.134Z,30.60
2023-10-13T22:37:06.347Z,30.20
2023-10-13T22:39:33.859Z,14.45
2023-10-13T22:42:00.750Z,18.95
2023-10-13T22:44:28.133Z,15.25
2023-10-13T22:46:54.965Z,32.83
2023-10-13T22:49:23.711Z,22.25
2023-10-13T22:51:50.528Z,23.02
2023-10-13T22:54:17.402Z,19.50
2023-10-13T22:56:44.633Z,23.00
2023-10-13T22:59:12.668Z,27.95
2023-10-13T23:01:42.967Z,25.33
2023-10-13T23:04:14.979Z,18.92
2023-10-13T23:06:46.493Z,18.00
2023-10-13T23:09:16.538Z,26.80
2023-10-13T23:11:48.575Z,24.70
2023-10-13T23:14:18.655Z,22.92
2023-10-13T23:16:46.872Z,29.65
2023-10-13T23:19:13.679Z,16.33
2023-10-13T23:21:40.475Z,17.77
2023-10-13T23:24:09.729Z,23.42
2023-10-13T23:26:36.482Z,24.80
2023-10-13T23:29:05.024Z,28.02
2023-10-13T23:31:32.421Z,20.55
2023-10-13T23:34:01.155Z,12.30
2023-10-13T23:36:29.439Z,18.50
2023-10-13T23:38:56.825Z,20.23
2023-10-13T23:41:27.525Z,18.27
2023-10-13T23:43:56.507Z,25.70
2023-10-13T23:46:23.540Z,14.25
2023-10-13T23:48:53.184Z,22.13
2023-10-13T23:51:21.703Z,19.17
2023-10-13T23:53:49.264Z,16.98
2023-10-13T23:56:18.551Z,20.38
2023-10-13T23:58:58.429Z,19.57
